San Diego, California
Traffic Map
Current Weather Conditions
San Diego, California
Overcast
Overcast
69°
Feels Like: 69°
Wind Chill: 69° Ceiling: 2000
Heat Index: 69° Visibility: 10mi
Dew Point: 61° Wind: 6mph
Humidity: 75% Direction: 230° (SW)
Pressure: 29.97in Gusts: 0mph
Raw Report DataKSAN 210551Z 23005KT 10SM OVC020 21/16 A2997 RMK AO2 SLP149 T02060161 10222 20206 51014
Traffic Incident Summary
Active as of:
Severity:
Category:
InformationThere was an issue retrieving the traffic information for this location. Please try a different location or try again shortly.
Advertisements